Time;durP1;ratioP1;P1;durP2;ratioP2;P2;SDS_P1;SDS_P2;PMS_P1;PMS_P2;Temp;Humidity;BMP_temperature;BMP_pressure;BME280_temperature;BME280_humidity;BME280_pressure;Samples;Min_cycle;Max_cycle;Signal;HPM_P1;HPM_P2
2022/06/16 00:00:20;;;;;;;6.75;4.15;;;16.40;99.90;;;;;;5022661;28;20029;-85
2022/06/16 00:02:49;;;;;;;5.03;3.85;;;16.40;99.90;;;;;;5041585;28;20089;-85
2022/06/16 00:05:19;;;;;;;5.85;3.40;;;16.40;99.90;;;;;;5022091;28;20033;-85
2022/06/16 00:07:45;;;;;;;5.47;3.70;;;16.40;99.90;;;;;;5022426;28;20486;-85
2022/06/16 00:10:15;;;;;;;6.22;4.18;;;16.40;99.90;;;;;;5021584;28;20432;-84
2022/06/16 00:12:41;;;;;;;8.15;4.18;;;16.40;99.90;;;;;;5022335;28;20036;-87
2022/06/16 00:15:12;;;;;;;6.20;3.78;;;16.50;99.90;;;;;;5021746;28;20132;-86
2022/06/16 00:17:38;;;;;;;8.80;3.80;;;16.40;99.90;;;;;;5022070;28;20034;-85
2022/06/16 00:20:05;;;;;;;4.65;3.60;;;16.40;99.90;;;;;;5022223;28;20028;-85
2022/06/16 00:22:35;;;;;;;4.00;3.47;;;16.40;99.90;;;;;;5022938;28;20032;-85
2022/06/16 00:25:01;;;;;;;6.07;3.85;;;16.30;99.90;;;;;;5039843;28;20029;-85
2022/06/16 00:27:27;;;;;;;8.05;3.90;;;16.30;99.90;;;;;;5021203;28;20121;-85
2022/06/16 00:29:53;;;;;;;6.45;4.07;;;16.20;99.90;;;;;;5021139;28;20057;-84
2022/06/16 00:32:19;;;;;;;4.38;3.53;;;16.20;99.90;;;;;;5021805;28;20418;-85
2022/06/16 00:34:45;;;;;;;4.47;3.78;;;16.10;99.90;;;;;;5021155;28;20048;-85
2022/06/16 00:37:13;;;;;;;8.65;4.00;;;16.10;99.90;;;;;;5038476;28;20021;-84
2022/06/16 00:39:39;;;;;;;4.30;3.90;;;16.10;99.90;;;;;;5039839;28;20536;-85
2022/06/16 00:42:08;;;;;;;6.00;4.10;;;16.00;99.90;;;;;;5004869;28;20112;-86
2022/06/16 00:44:33;;;;;;;8.57;4.28;;;15.90;99.90;;;;;;5020313;28;20120;-84
2022/06/16 00:46:59;;;;;;;6.13;4.07;;;15.90;99.90;;;;;;5021011;28;20069;-85
2022/06/16 00:49:35;;;;;;;8.63;4.63;;;15.90;99.90;;;;;;5005249;28;20472;-85
2022/06/16 00:52:11;;;;;;;7.10;3.70;;;15.80;99.90;;;;;;5020999;28;20124;-85
2022/06/16 00:54:41;;;;;;;8.75;3.95;;;15.80;99.90;;;;;;5003997;28;20049;-85
2022/06/16 00:57:21;;;;;;;9.02;4.28;;;15.80;99.90;;;;;;5005275;28;20806;-84
2022/06/16 00:59:47;;;;;;;4.47;3.55;;;15.80;99.90;;;;;;5004525;28;20029;-85
2022/06/16 01:02:15;;;;;;;6.20;4.45;;;15.70;99.90;;;;;;5020053;28;20494;-85
2022/06/16 01:04:52;;;;;;;8.38;4.00;;;15.70;99.90;;;;;;5038410;28;20497;-85
2022/06/16 01:07:26;;;;;;;5.50;3.83;;;15.60;99.90;;;;;;5038403;28;20037;-84
2022/06/16 01:09:53;;;;;;;5.60;4.25;;;15.60;99.90;;;;;;5003717;28;20375;-85
2022/06/16 01:15:46;;;;;;;7.13;3.78;;;15.50;99.90;;;;;;5021322;28;20038;-86
2022/06/16 01:18:52;;;;;;;9.68;3.78;;;15.50;99.90;;;;;;4996433;28;20128;-84
2022/06/16 01:21:45;;;;;;;5.80;4.03;;;15.50;99.90;;;;;;5020211;28;20030;-86
2022/06/16 01:24:20;;;;;;;8.30;4.28;;;15.40;99.90;;;;;;5021200;28;20037;-85
2022/06/16 01:27:08;;;;;;;6.03;3.80;;;15.40;99.90;;;;;;5032278;28;20045;-85
2022/06/16 01:29:57;;;;;;;8.18;4.32;;;15.30;99.90;;;;;;4999898;28;20041;-84
2022/06/16 01:32:56;;;;;;;5.90;3.97;;;15.30;99.90;;;;;;4996264;28;20128;-84
2022/06/16 01:35:34;;;;;;;7.82;4.32;;;15.20;99.90;;;;;;4998844;28;20076;-84
2022/06/16 01:38:28;;;;;;;6.10;3.80;;;15.30;99.90;;;;;;5000068;28;20068;-84
2022/06/16 01:41:29;;;;;;;7.57;4.40;;;15.30;99.90;;;;;;4973893;28;20037;-83
2022/06/16 01:44:47;;;;;;;6.05;4.05;;;15.20;99.90;;;;;;5001463;28;20037;-84
2022/06/16 01:47:18;;;;;;;5.00;3.80;;;15.10;99.90;;;;;;4958164;28;20031;-84
2022/06/16 01:50:00;;;;;;;7.63;4.47;;;15.10;99.90;;;;;;4975292;28;20035;-84
2022/06/16 01:52:39;;;;;;;7.88;4.95;;;15.10;99.90;;;;;;4998385;28;20057;-84
2022/06/16 01:55:13;;;;;;;8.95;4.55;;;15.10;99.90;;;;;;5001375;28;20052;-86
2022/06/16 01:57:45;;;;;;;6.15;4.10;;;15.10;99.90;;;;;;5019317;28;20021;-85
2022/06/16 02:00:31;;;;;;;6.57;4.38;;;15.10;99.90;;;;;;5002742;28;20474;-85
2022/06/16 02:03:05;;;;;;;5.20;4.50;;;15.10;99.90;;;;;;5002304;28;20029;-86
2022/06/16 02:06:03;;;;;;;;;;;15.10;99.90;;;;;;5019451;28;20639;-85
2022/06/16 02:08:57;;;;;;;7.88;4.85;;;15.10;99.90;;;;;;4943131;28;19984;-85
2022/06/16 02:11:36;;;;;;;8.50;5.07;;;15.00;99.90;;;;;;4991715;28;20060;-84
2022/06/16 02:14:40;;;;;;;7.38;5.07;;;14.90;99.90;;;;;;5019583;28;20042;-84
2022/06/16 02:17:23;;;;;;;9.13;4.95;;;14.90;99.90;;;;;;5018704;28;20032;-86
2022/06/16 02:19:49;;;;;;;8.45;5.22;;;14.80;99.90;;;;;;5037275;28;20101;-85
2022/06/16 02:22:15;;;;;;;7.63;5.22;;;14.70;99.90;;;;;;5002550;28;20063;-84
2022/06/16 02:24:45;;;;;;;7.60;5.43;;;14.60;99.90;;;;;;5010470;28;20067;-83
2022/06/16 02:27:13;;;;;;;8.50;5.00;;;14.60;99.90;;;;;;5007289;28;20029;-84
2022/06/16 02:29:45;;;;;;;7.18;5.07;;;14.60;99.90;;;;;;5006025;28;20036;-85
2022/06/16 02:33:01;;;;;;;6.32;4.95;;;14.60;99.90;;;;;;5005687;28;20041;-85
2022/06/16 02:35:49;;;;;;;12.45;5.35;;;14.60;99.90;;;;;;4979546;28;20080;-86
2022/06/16 02:38:21;;;;;;;6.38;4.82;;;14.60;99.90;;;;;;5004243;28;20128;-86
2022/06/16 02:41:14;;;;;;;8.05;5.30;;;14.60;99.90;;;;;;5020112;28;20097;-85
2022/06/16 02:44:07;;;;;;;8.20;4.90;;;14.60;99.90;;;;;;5019581;28;20025;-85
2022/06/16 02:46:45;;;;;;;6.47;4.97;;;14.60;99.90;;;;;;5020326;28;20347;-84
2022/06/16 02:49:16;;;;;;;9.50;5.32;;;14.50;99.90;;;;;;5003294;28;20053;-85
2022/06/16 02:52:06;;;;;;;10.63;5.63;;;14.40;99.90;;;;;;5019801;28;20494;-85
2022/06/16 02:54:35;;;;;;;8.05;5.60;;;14.40;99.90;;;;;;5002489;28;20080;-84
2022/06/16 02:57:31;;;;;;;7.53;4.75;;;14.30;99.90;;;;;;5018208;28;20021;-85
2022/06/16 03:00:03;;;;;;;7.53;5.20;;;14.30;99.90;;;;;;5018148;28;20079;-84
2022/06/16 03:02:34;;;;;;;;;;;14.40;99.90;;;;;;5003944;28;20052;-85
2022/06/16 03:05:00;;;;;;;9.50;4.63;;;14.50;99.90;;;;;;5002256;28;19940;-85
2022/06/16 03:07:28;;;;;;;6.38;4.75;;;14.50;99.90;;;;;;5002158;28;20367;-85
2022/06/16 03:10:50;;;;;;;9.05;4.93;;;14.40;99.90;;;;;;5036941;28;20815;-84
2022/06/16 03:13:05;;;;;;;9.60;5.18;;;14.40;99.90;;;;;;5019116;28;20039;-84
2022/06/16 03:15:32;;;;;;;5.80;4.47;;;14.30;99.90;;;;;;5019525;28;20044;-85
2022/06/16 03:17:57;;;;;;;8.82;4.82;;;14.40;99.90;;;;;;5018931;28;20030;-84
2022/06/16 03:20:23;;;;;;;6.20;4.97;;;14.30;99.90;;;;;;5013321;28;20051;-84
2022/06/16 03:22:49;;;;;;;9.30;4.88;;;14.40;99.90;;;;;;5019739;28;20020;-85
2022/06/16 03:25:16;;;;;;;7.32;5.10;;;14.30;99.90;;;;;;5002854;28;20060;-85
2022/06/16 03:27:42;;;;;;;7.50;4.93;;;14.30;99.90;;;;;;5002935;28;20025;-85
2022/06/16 03:30:10;;;;;;;9.32;5.10;;;14.30;99.90;;;;;;5018609;28;20117;-85
2022/06/16 03:32:36;;;;;;;8.95;5.70;;;14.40;99.90;;;;;;5023080;28;20041;-84
2022/06/16 03:35:04;;;;;;;7.28;5.10;;;14.40;99.90;;;;;;5008670;28;20025;-84
2022/06/16 03:37:30;;;;;;;8.90;5.35;;;14.40;99.90;;;;;;5008877;28;20083;-85
2022/06/16 03:40:02;;;;;;;7.15;5.40;;;14.40;99.90;;;;;;5025634;28;20025;-84
2022/06/16 03:42:30;;;;;;;8.27;5.60;;;14.60;99.90;;;;;;5025631;28;20032;-84
2022/06/16 03:44:58;;;;;;;12.00;5.13;;;14.70;99.90;;;;;;5008654;28;20032;-84
2022/06/16 03:47:24;;;;;;;9.07;5.28;;;14.80;99.90;;;;;;5008634;28;20041;-84
2022/06/16 03:49:50;;;;;;;12.18;5.25;;;15.00;99.90;;;;;;5024096;28;20141;-86
2022/06/16 03:52:16;;;;;;;9.68;5.78;;;15.10;99.90;;;;;;5024338;28;20061;-85
2022/06/16 03:54:47;;;;;;;9.38;5.45;;;15.20;99.90;;;;;;5025328;28;20026;-84
2022/06/16 03:57:14;;;;;;;8.63;5.35;;;15.30;99.90;;;;;;5023870;28;20025;-84
2022/06/16 03:59:41;;;;;;;11.27;4.90;;;15.30;99.90;;;;;;5007060;28;20025;-83
2022/06/16 04:02:45;;;;;;;8.52;5.35;;;15.40;99.90;;;;;;5041865;28;20546;-83
2022/06/16 04:05:14;;;;;;;13.30;5.50;;;15.50;99.90;;;;;;5022732;28;20380;-83
2022/06/16 04:07:47;;;;;;;8.88;5.28;;;15.70;99.90;;;;;;5023452;28;20040;-84
2022/06/16 04:10:20;;;;;;;9.18;5.53;;;15.90;99.90;;;;;;5031365;28;20044;-84
2022/06/16 04:12:46;;;;;;;10.50;5.07;;;16.20;99.90;;;;;;5030478;28;20045;-84
2022/06/16 04:15:16;;;;;;;10.82;5.45;;;16.40;99.90;;;;;;5009998;28;20041;-83
2022/06/16 04:17:42;;;;;;;7.55;5.15;;;16.60;99.90;;;;;;5044510;28;20076;-85
2022/06/16 04:20:19;;;;;;;11.52;4.70;;;16.70;99.90;;;;;;5025895;28;20036;-85
2022/06/16 04:23:06;;;;;;;7.35;5.10;;;16.70;99.90;;;;;;5026877;28;20045;-84
2022/06/16 04:25:33;;;;;;;6.88;5.15;;;16.70;99.90;;;;;;5025512;28;20116;-84
2022/06/16 04:28:11;;;;;;;8.82;5.35;;;16.70;99.90;;;;;;5026177;28;20033;-84
2022/06/16 04:30:45;;;;;;;11.20;5.85;;;16.80;99.90;;;;;;5010860;28;20441;-84
2022/06/16 04:33:13;;;;;;;6.20;5.00;;;16.70;99.90;;;;;;5022554;28;20010;-85
2022/06/16 04:35:46;;;;;;;9.38;5.07;;;16.70;99.90;;;;;;5022536;28;20033;-83
2022/06/16 04:38:15;;;;;;;9.50;5.43;;;16.80;99.90;;;;;;5003465;28;20025;-83
2022/06/16 04:40:42;;;;;;;6.55;4.60;;;16.80;99.90;;;;;;5017993;28;20113;-85
2022/06/16 04:43:15;;;;;;;5.95;5.03;;;16.90;99.90;;;;;;5000969;28;20058;-82
2022/06/16 04:45:44;;;;;;;7.88;5.00;;;17.00;99.90;;;;;;5014980;28;20030;-83
2022/06/16 04:48:12;;;;;;;5.25;4.55;;;17.30;99.90;;;;;;5014793;28;20116;-82
2022/06/16 04:50:41;;;;;;;7.47;5.20;;;17.70;99.90;;;;;;5015275;28;20112;-83
2022/06/16 04:53:19;;;;;;;10.45;5.43;;;18.20;99.90;;;;;;5033227;28;20080;-82
2022/06/16 04:56:17;;;;;;;9.52;4.60;;;18.60;99.90;;;;;;5001943;28;20036;-83
2022/06/16 04:58:49;;;;;;;10.32;5.07;;;18.80;99.90;;;;;;5015434;28;20056;-84
2022/06/16 05:01:28;;;;;;;6.03;4.57;;;18.80;99.90;;;;;;5001400;28;20026;-84
2022/06/16 05:04:12;;;;;;;6.68;5.20;;;18.70;99.90;;;;;;5020576;28;20053;-82
2022/06/16 05:06:49;;;;;;;6.40;4.97;;;18.60;99.90;;;;;;5017116;28;20040;-82
2022/06/16 05:09:23;;;;;;;7.68;4.70;;;18.50;99.90;;;;;;5013462;28;20083;-83
2022/06/16 05:12:00;;;;;;;8.82;5.40;;;18.50;99.90;;;;;;5017876;28;20553;-84
2022/06/16 05:14:26;;;;;;;8.13;5.45;;;18.50;99.90;;;;;;5034810;28;20374;-84
2022/06/16 05:17:12;;;;;;;8.18;5.05;;;18.70;99.90;;;;;;5020525;28;20060;-84
2022/06/16 05:20:14;;;;;;;5.50;4.90;;;18.90;99.90;;;;;;4975808;28;20431;-83
2022/06/16 05:23:00;;;;;;;5.80;5.13;;;19.00;99.90;;;;;;5030530;28;20068;-82
2022/06/16 05:25:52;;;;;;;7.07;4.78;;;19.10;99.90;;;;;;5018524;28;20087;-83
2022/06/16 05:28:26;;;;;;;9.45;5.20;;;19.10;99.90;;;;;;5017831;28;20025;-84
2022/06/16 05:31:23;;;;;;;8.88;5.00;;;19.20;99.90;;;;;;4986257;28;20058;-83
2022/06/16 05:34:17;;;;;;;7.43;4.82;;;19.30;99.90;;;;;;5018961;28;20757;-84
2022/06/16 05:37:01;;;;;;;7.13;5.53;;;19.30;99.90;;;;;;5022062;28;20044;-83
2022/06/16 05:39:47;;;;;;;5.93;5.20;;;19.40;99.90;;;;;;5037887;28;20072;-83
2022/06/16 05:42:31;;;;;;;6.82;5.00;;;19.40;99.90;;;;;;5005187;28;20049;-84
2022/06/16 05:45:16;;;;;;;6.05;4.60;;;19.50;99.90;;;;;;5021096;28;20157;-82
2022/06/16 05:48:10;;;;;;;7.97;5.20;;;19.50;99.90;;;;;;5012317;28;20025;-83
2022/06/16 05:50:36;;;;;;;7.03;4.57;;;19.70;99.90;;;;;;5002175;28;20037;-85
2022/06/16 05:53:04;;;;;;;12.77;5.38;;;19.80;99.90;;;;;;5018877;28;20036;-83
2022/06/16 05:55:38;;;;;;;12.70;5.07;;;20.00;99.90;;;;;;5001548;28;20128;-82
2022/06/16 05:58:05;;;;;;;10.73;5.40;;;20.10;99.90;;;;;;5002116;28;20033;-84
2022/06/16 06:00:41;;;;;;;8.80;4.88;;;20.30;99.90;;;;;;5003041;28;20042;-84
2022/06/16 06:03:11;;;;;;;12.77;4.93;;;20.40;99.90;;;;;;5008838;28;20037;-83
2022/06/16 06:05:39;;;;;;;8.40;4.93;;;20.70;99.90;;;;;;4989976;28;20501;-82
2022/06/16 06:16:35;;;;;;;9.38;5.20;;;21.60;99.90;;;;;;5017816;28;20021;-83
2022/06/16 06:22:03;;;;;;;8.57;5.35;;;21.30;99.90;;;;;;5013506;28;20025;-83
2022/06/16 06:24:37;;;;;;;9.93;5.20;;;21.00;99.90;;;;;;5002384;28;20060;-82
2022/06/16 06:27:27;;;;;;;10.85;5.45;;;20.90;99.90;;;;;;5011334;28;20021;-83
2022/06/16 06:29:55;;;;;;;5.72;4.93;;;20.80;99.90;;;;;;5020115;28;20118;-84
2022/06/16 06:32:23;;;;;;;8.13;5.57;;;20.80;99.90;;;;;;4998804;28;20034;-83
2022/06/16 06:34:50;;;;;;;9.77;5.63;;;20.70;99.90;;;;;;5000788;28;20029;-83
2022/06/16 06:37:18;;;;;;;10.20;6.05;;;20.50;99.90;;;;;;5002146;28;20021;-84
2022/06/16 06:39:44;;;;;;;9.13;5.88;;;20.70;99.90;;;;;;5006166;28;20033;-84
2022/06/16 06:42:09;;;;;;;6.85;5.60;;;20.80;99.90;;;;;;5016808;28;20037;-84
2022/06/16 06:44:36;;;;;;;9.82;6.00;;;20.90;99.90;;;;;;4999362;28;20203;-85
2022/06/16 06:47:03;;;;;;;7.93;5.80;;;20.80;99.90;;;;;;4998980;28;20034;-84
2022/06/16 06:49:29;;;;;;;7.88;5.72;;;20.90;99.90;;;;;;5016844;28;20096;-85
2022/06/16 06:51:54;;;;;;;13.60;5.60;;;21.00;99.90;;;;;;5008582;28;20045;-85
2022/06/16 06:54:21;;;;;;;8.55;5.70;;;21.00;99.90;;;;;;5007609;28;20032;-85
2022/06/16 06:56:48;;;;;;;5.35;4.85;;;20.80;99.90;;;;;;5013619;28;20030;-85
2022/06/16 06:59:18;;;;;;;7.55;5.15;;;20.90;99.90;;;;;;5036282;28;20074;-84
2022/06/16 07:01:49;;;;;;;10.65;5.50;;;21.00;99.90;;;;;;5017898;28;20025;-85
2022/06/16 07:04:16;;;;;;;16.17;5.43;;;21.20;99.90;;;;;;5003154;28;20038;-84
2022/06/16 07:06:42;;;;;;;9.07;4.72;;;21.40;99.90;;;;;;5026927;28;20032;-85
2022/06/16 07:09:17;;;;;;;9.18;4.97;;;21.80;99.90;;;;;;5017720;28;20033;-85
2022/06/16 07:11:45;;;;;;;11.10;4.40;;;22.60;99.90;;;;;;5041841;28;20017;-85
2022/06/16 07:14:11;;;;;;;9.43;5.00;;;23.00;99.90;;;;;;5006549;28;20042;-84
2022/06/16 07:16:37;;;;;;;8.13;5.20;;;23.00;99.90;;;;;;5016210;28;20112;-84
2022/06/16 07:19:06;;;;;;;8.00;5.05;;;23.20;99.90;;;;;;5026909;28;20021;-85
2022/06/16 07:21:32;;;;;;;6.60;4.78;;;23.20;99.90;;;;;;5043937;28;20075;-85
2022/06/16 07:23:58;;;;;;;8.85;4.70;;;23.30;99.90;;;;;;5027075;28;20033;-86
2022/06/16 07:26:25;;;;;;;9.50;5.00;;;23.70;99.90;;;;;;5006828;28;20037;-86
2022/06/16 07:28:50;;;;;;;9.95;4.85;;;24.40;99.90;;;;;;5020556;28;20085;-86
2022/06/16 07:31:17;;;;;;;10.27;4.68;;;25.40;99.90;;;;;;5002724;28;20056;-85
2022/06/16 07:33:53;;;;;;;6.15;5.18;;;26.00;99.90;;;;;;5018077;28;20033;-90
2022/06/16 07:36:19;;;;;;;7.60;4.45;;;25.80;99.90;;;;;;5002650;28;20038;-86
2022/06/16 07:38:46;;;;;;;5.75;4.50;;;26.00;98.70;;;;;;5002601;28;20034;-86
2022/06/16 07:41:31;;;;;;;7.47;4.85;;;25.90;99.20;;;;;;5002647;28;20029;-85
2022/06/16 07:43:58;;;;;;;9.55;5.03;;;24.80;99.90;;;;;;5018331;28;20038;-86
2022/06/16 07:46:24;;;;;;;6.35;4.97;;;23.90;99.90;;;;;;5002865;28;20035;-85
2022/06/16 07:48:51;;;;;;;6.57;4.60;;;23.30;99.90;;;;;;5002761;28;20073;-85
2022/06/16 07:51:17;;;;;;;10.63;5.20;;;23.00;99.90;;;;;;5002454;28;20459;-86
2022/06/16 07:53:43;;;;;;;8.05;4.60;;;22.80;99.90;;;;;;5017933;28;20040;-85
2022/06/16 07:56:09;;;;;;;7.18;4.72;;;22.70;99.90;;;;;;5009917;28;20025;-86
2022/06/16 07:58:35;;;;;;;11.30;4.53;;;22.80;99.90;;;;;;4999518;28;20080;-86
2022/06/16 08:01:01;;;;;;;5.03;3.50;;;23.90;99.90;;;;;;5014123;28;20814;-86
2022/06/16 08:03:28;;;;;;;8.35;4.53;;;25.20;99.90;;;;;;4996981;28;20824;-86
2022/06/16 08:05:57;;;;;;;7.40;4.18;;;25.70;99.10;;;;;;5014017;28;20432;-86
2022/06/16 08:08:30;;;;;;;5.60;3.80;;;26.00;97.80;;;;;;5018037;28;20025;-85
2022/06/16 08:10:56;;;;;;;9.13;3.70;;;26.60;96.00;;;;;;5010744;28;20064;-85
2022/06/16 08:13:23;;;;;;;4.75;3.38;;;26.50;94.70;;;;;;5018804;28;20296;-86
2022/06/16 08:15:51;;;;;;;8.82;4.18;;;26.70;94.70;;;;;;5020852;28;20060;-85
2022/06/16 08:18:24;;;;;;;7.60;3.90;;;27.40;94.10;;;;;;5013653;28;20037;-86
2022/06/16 08:20:52;;;;;;;6.30;4.28;;;26.50;92.40;;;;;;5004533;28;20036;-84
2022/06/16 08:23:18;;;;;;;8.80;3.97;;;25.10;93.70;;;;;;5005395;28;20026;-85
2022/06/16 08:25:46;;;;;;;11.30;4.00;;;24.40;95.50;;;;;;5006522;28;20469;-87
2022/06/16 08:28:18;;;;;;;6.97;3.75;;;24.50;95.50;;;;;;5023992;28;20033;-86
2022/06/16 08:30:44;;;;;;;7.82;3.78;;;24.70;95.00;;;;;;5024568;28;20106;-85
2022/06/16 08:33:16;;;;;;;6.43;3.05;;;25.00;94.10;;;;;;5026774;28;20025;-85
2022/06/16 08:35:46;;;;;;;10.13;3.42;;;24.70;94.10;;;;;;5026815;28;20021;-85
2022/06/16 08:38:15;;;;;;;7.05;3.75;;;24.40;94.80;;;;;;5042110;28;20056;-85
2022/06/16 08:40:47;;;;;;;12.30;3.85;;;23.90;94.70;;;;;;5023921;28;20021;-86
2022/06/16 08:43:35;;;;;;;6.50;3.30;;;23.50;94.80;;;;;;5022818;28;20091;-85
2022/06/16 08:46:06;;;;;;;11.18;4.00;;;24.20;95.20;;;;;;5020289;28;20041;-87
2022/06/16 08:49:00;;;;;;;10.90;3.92;;;25.20;92.50;;;;;;5019977;28;20030;-85
2022/06/16 08:51:57;;;;;;;11.40;4.07;;;25.40;91.50;;;;;;5021088;28;20092;-86
2022/06/16 08:54:49;;;;;;;5.72;3.70;;;25.70;91.70;;;;;;5005034;28;20037;-85
2022/06/16 08:57:37;;;;;;;10.45;4.05;;;25.50;90.80;;;;;;5020099;28;20041;-86
2022/06/16 09:00:15;;;;;;;8.65;4.07;;;25.80;90.00;;;;;;5004405;28;20036;-84
2022/06/16 09:03:06;;;;;;;11.65;3.78;;;26.20;89.80;;;;;;5020003;28;20037;-86
2022/06/16 09:05:36;;;;;;;11.70;4.25;;;26.20;89.80;;;;;;5002639;28;20088;-87
2022/06/16 09:08:27;;;;;;;8.63;3.83;;;26.20;88.20;;;;;;5021227;28;20132;-86
2022/06/16 09:11:13;;;;;;;10.33;4.10;;;25.80;89.50;;;;;;5004351;28;20033;-85
2022/06/16 09:13:40;;;;;;;9.68;3.65;;;25.80;88.50;;;;;;5021019;28;20036;-85
2022/06/16 09:16:22;;;;;;;14.07;3.70;;;25.90;90.00;;;;;;5021759;28;20037;-85
2022/06/16 09:19:04;;;;;;;10.00;3.83;;;26.50;88.20;;;;;;5052540;28;20041;-86
2022/06/16 09:21:38;;;;;;;11.20;3.97;;;26.80;86.60;;;;;;5042364;28;20415;-85
2022/06/16 09:24:26;;;;;;;12.23;4.07;;;26.80;86.80;;;;;;5060306;28;20390;-86
2022/06/16 09:26:51;;;;;;;7.88;3.70;;;27.10;84.70;;;;;;5059845;28;20029;-86
2022/06/16 09:29:52;;;;;;;9.65;3.70;;;27.70;85.50;;;;;;5040518;28;20735;-83
2022/06/16 09:32:49;;;;;;;9.02;3.55;;;27.70;84.80;;;;;;5025550;28;20036;-87
2022/06/16 09:35:58;;;;;;;4.72;3.67;;;27.80;83.50;;;;;;5013790;28;20097;-87
2022/06/16 09:38:44;;;;;;;9.23;3.80;;;27.50;81.60;;;;;;5016215;28;20259;-86
2022/06/16 09:44:52;;;;;;;14.55;8.48;;;28.00;80.90;;;;;;5018875;28;20033;-85
2022/06/16 09:47:28;;;;;;;21.48;9.88;;;28.10;79.90;;;;;;5021567;28;20025;-85
2022/06/16 09:50:08;;;;;;;8.60;3.35;;;27.80;78.90;;;;;;5001385;28;20038;-85
2022/06/16 09:52:43;;;;;;;8.38;3.75;;;28.10;81.70;;;;;;5015026;28;20482;-85
2022/06/16 09:55:18;;;;;;;10.30;3.60;;;28.50;81.40;;;;;;5034795;28;20063;-85
2022/06/16 09:57:58;;;;;;;6.57;3.53;;;29.00;75.50;;;;;;5006423;28;20029;-85
2022/06/16 10:00:27;;;;;;;8.75;3.10;;;29.20;75.20;;;;;;5002926;28;20087;-85
2022/06/16 10:02:58;;;;;;;7.90;3.53;;;29.30;76.20;;;;;;5006791;28;20166;-84
2022/06/16 10:05:49;;;;;;;;;;;29.00;75.20;;;;;;5010007;28;20037;-84
2022/06/16 10:08:33;;;;;;;6.45;4.00;;;28.70;76.80;;;;;;5031046;28;19913;-85
2022/06/16 10:11:26;;;;;;;6.78;3.47;;;28.40;73.90;;;;;;5020510;28;20025;-84
2022/06/16 10:14:32;;;;;;;8.48;3.63;;;28.40;73.80;;;;;;5005581;28;20044;-84
2022/06/16 10:17:02;;;;;;;4.53;3.10;;;28.40;73.80;;;;;;5019681;28;20045;-84
2022/06/16 10:19:32;;;;;;;6.38;3.03;;;28.30;74.10;;;;;;5020964;28;20052;-85
2022/06/16 10:22:03;;;;;;;8.80;3.53;;;28.40;74.90;;;;;;5039176;28;20041;-86
2022/06/16 10:24:36;;;;;;;;;;;28.10;74.00;;;;;;5022363;28;20037;-85
2022/06/16 10:27:02;;;;;;;8.05;3.42;;;28.30;75.60;;;;;;5020918;28;19963;-86
2022/06/16 10:29:32;;;;;;;9.45;3.30;;;28.20;76.70;;;;;;5004854;28;20032;-85
2022/06/16 10:31:59;;;;;;;7.30;3.92;;;28.40;75.70;;;;;;5004738;28;20090;-86
2022/06/16 10:34:32;;;;;;;8.30;3.75;;;28.50;76.00;;;;;;5020981;28;20074;-85
2022/06/16 10:37:15;;;;;;;7.85;3.05;;;28.10;75.90;;;;;;5005392;28;20034;-87
2022/06/16 10:39:48;;;;;;;7.05;3.55;;;28.00;76.40;;;;;;5039248;28;20052;-86
2022/06/16 10:42:22;;;;;;;11.10;3.60;;;27.70;78.10;;;;;;5030492;28;20019;-88
2022/06/16 10:45:11;;;;;;;10.13;3.05;;;27.60;77.50;;;;;;5034896;28;20057;-86
2022/06/16 10:47:50;;;;;;;9.20;3.25;;;27.50;79.00;;;;;;5007443;28;20542;-86
2022/06/16 10:50:24;;;;;;;8.40;3.22;;;27.80;80.50;;;;;;5028677;28;20075;-87
2022/06/16 10:53:04;;;;;;;7.90;3.10;;;27.90;75.80;;;;;;5023216;28;20033;-87
2022/06/16 10:55:41;;;;;;;12.90;3.70;;;27.80;77.10;;;;;;5006201;28;20038;-83
2022/06/16 10:58:20;;;;;;;10.50;3.35;;;28.00;78.00;;;;;;5018361;28;20036;-85
2022/06/16 11:01:28;;;;;;;7.95;3.75;;;27.90;77.90;;;;;;5017597;28;20499;-86
2022/06/16 11:04:05;;;;;;;12.20;4.32;;;27.80;77.30;;;;;;5008606;28;20060;-84
2022/06/16 11:06:37;;;;;;;6.07;3.40;;;27.60;74.40;;;;;;5019655;28;20042;-85
2022/06/16 11:09:05;;;;;;;6.10;3.65;;;27.70;77.50;;;;;;5043575;28;20038;-85
2022/06/16 11:11:46;;;;;;;6.05;3.33;;;27.90;76.10;;;;;;5027807;28;20509;-85
2022/06/16 11:14:21;;;;;;;;;;;28.10;76.30;;;;;;5002381;28;20037;-83
2022/06/16 11:16:53;;;;;;;5.95;3.47;;;28.10;77.50;;;;;;5019077;28;19914;-84
2022/06/16 11:19:44;;;;;;;11.23;3.90;;;28.30;76.40;;;;;;5026479;28;20040;-85
2022/06/16 11:22:26;;;;;;;8.43;4.35;;;28.50;75.90;;;;;;5054024;28;20048;-85
2022/06/16 11:25:06;;;;;;;7.10;4.07;;;28.00;73.00;;;;;;5012286;28;20585;-86
2022/06/16 11:27:54;;;;;;;10.20;4.70;;;27.40;74.30;;;;;;5023715;28;20075;-84
2022/06/16 11:30:37;;;;;;;8.43;4.10;;;27.70;75.30;;;;;;4988048;28;20127;-85
2022/06/16 11:33:05;;;;;;;6.63;4.05;;;27.80;76.70;;;;;;4988075;28;20037;-85
2022/06/16 11:35:43;;;;;;;8.52;3.90;;;28.10;77.70;;;;;;5001248;28;20054;-84
2022/06/16 11:38:31;;;;;;;8.07;4.72;;;28.30;74.80;;;;;;5023483;28;20025;-85
2022/06/16 11:41:11;;;;;;;10.45;5.10;;;28.30;76.30;;;;;;5040612;28;20040;-85
2022/06/16 11:44:19;;;;;;;9.10;4.07;;;28.20;75.20;;;;;;5059753;28;20037;-86
2022/06/16 11:46:51;;;;;;;11.43;4.53;;;28.10;77.60;;;;;;4981921;28;20030;-84
2022/06/16 11:49:49;;;;;;;12.65;4.88;;;28.10;76.40;;;;;;5021388;28;20029;-85
2022/06/16 11:52:27;;;;;;;12.52;4.13;;;28.20;75.10;;;;;;5025935;28;20040;-85
2022/06/16 11:55:15;;;;;;;8.38;3.95;;;28.40;75.50;;;;;;5033740;28;20051;-86
2022/06/16 11:58:09;;;;;;;12.45;4.07;;;28.60;75.10;;;;;;5050936;28;20025;-85
2022/06/16 12:01:03;;;;;;;6.25;4.05;;;28.60;75.40;;;;;;5032875;28;20041;-86
2022/06/16 12:03:34;;;;;;;8.82;4.03;;;28.60;74.50;;;;;;5039288;28;20025;-87
2022/06/16 12:06:21;;;;;;;11.85;4.90;;;28.20;73.70;;;;;;5061498;28;20021;-86
2022/06/16 12:09:08;;;;;;;6.97;4.03;;;28.00;74.20;;;;;;5079077;28;20029;-89
2022/06/16 12:11:43;;;;;;;8.57;4.22;;;28.20;74.10;;;;;;5045393;28;20037;-86
2022/06/16 12:14:25;;;;;;;6.88;3.90;;;28.40;72.00;;;;;;5078323;28;20106;-87
2022/06/16 12:16:57;;;;;;;7.68;3.65;;;28.60;71.70;;;;;;5044335;28;20025;-86
2022/06/16 12:19:31;;;;;;;9.40;4.13;;;28.40;70.20;;;;;;5043501;28;20048;-84
2022/06/16 12:22:09;;;;;;;5.18;3.70;;;28.60;70.30;;;;;;5044317;28;20118;-87
2022/06/16 12:24:59;;;;;;;12.35;4.15;;;28.80;74.00;;;;;;5027172;28;20089;-88
2022/06/16 12:27:46;;;;;;;9.02;4.07;;;29.10;71.90;;;;;;5024297;28;20375;-85
2022/06/16 12:30:22;;;;;;;7.75;3.50;;;29.00;71.20;;;;;;5006631;28;20029;-85
2022/06/16 12:33:01;;;;;;;9.38;3.45;;;29.10;71.60;;;;;;5023700;28;20033;-84
2022/06/16 12:35:36;;;;;;;7.45;3.90;;;29.40;70.10;;;;;;5022972;28;20131;-83
2022/06/16 12:38:08;;;;;;;7.40;3.92;;;29.40;69.10;;;;;;5024189;28;20052;-85
2022/06/16 12:40:43;;;;;;;7.25;3.55;;;29.30;66.50;;;;;;5040896;28;20067;-87
2022/06/16 12:43:35;;;;;;;7.22;3.40;;;29.50;65.40;;;;;;5006299;28;20033;-84
2022/06/16 12:46:10;;;;;;;9.27;3.63;;;30.00;63.90;;;;;;5004874;28;20037;-85
2022/06/16 12:48:52;;;;;;;13.30;4.00;;;30.30;62.50;;;;;;5020703;28;20036;-85
2022/06/16 12:51:27;;;;;;;8.38;3.55;;;30.30;65.10;;;;;;5019349;28;20483;-85
2022/06/16 12:54:03;;;;;;;9.30;3.70;;;30.10;66.60;;;;;;5020531;28;20037;-84
2022/06/16 12:56:51;;;;;;;7.63;3.45;;;30.20;68.00;;;;;;5026167;28;20029;-85
2022/06/16 12:59:33;;;;;;;7.70;4.50;;;30.90;66.60;;;;;;5010297;28;20030;-85
2022/06/16 13:02:00;;;;;;;11.98;4.07;;;30.70;67.90;;;;;;5008489;28;20541;-84
2022/06/16 13:04:29;;;;;;;7.53;3.58;;;30.40;67.50;;;;;;5026924;28;20053;-85
2022/06/16 13:06:57;;;;;;;10.15;4.20;;;29.90;66.70;;;;;;5019140;28;20076;-85
2022/06/16 13:09:24;;;;;;;7.07;4.00;;;29.60;66.50;;;;;;5035148;28;20041;-84
2022/06/16 13:11:55;;;;;;;4.63;3.33;;;29.50;66.80;;;;;;5021618;28;20029;-85
2022/06/16 13:14:57;;;;;;;11.88;4.20;;;29.80;66.60;;;;;;5026929;28;20061;-85
2022/06/16 13:17:27;;;;;;;6.65;4.05;;;29.40;65.90;;;;;;5006707;28;20025;-85
2022/06/16 13:20:00;;;;;;;10.38;3.70;;;29.40;66.60;;;;;;5027658;28;20410;-86
2022/06/16 13:22:28;;;;;;;9.85;3.45;;;29.70;68.00;;;;;;5020789;28;20033;-84
2022/06/16 13:24:58;;;;;;;10.60;4.00;;;30.20;66.50;;;;;;5036273;28;20501;-85
2022/06/16 13:27:25;;;;;;;9.20;3.35;;;30.20;63.50;;;;;;5035249;28;20037;-83
2022/06/16 13:29:51;;;;;;;6.13;3.58;;;30.00;61.90;;;;;;5005589;28;20474;-86
2022/06/16 13:32:47;;;;;;;8.85;3.30;;;30.30;64.90;;;;;;5024693;28;20116;-84
2022/06/16 13:35:13;;;;;;;8.07;4.38;;;30.00;62.20;;;;;;5024896;28;20025;-84
2022/06/16 13:37:45;;;;;;;76.35;46.47;;;29.40;65.70;;;;;;5002010;28;20045;-84
2022/06/16 13:40:16;;;;;;;308.50;173.60;;;29.30;64.40;;;;;;5013597;28;20045;-83
2022/06/16 13:42:51;;;;;;;14.90;4.72;;;29.30;65.10;;;;;;5012180;28;20030;-83
2022/06/16 13:45:37;;;;;;;9.32;3.80;;;29.30;66.00;;;;;;5020920;28;20091;-83
2022/06/16 13:48:11;;;;;;;7.43;3.58;;;29.60;65.10;;;;;;5007082;28;20604;-83